Time;durP1;ratioP1;P1;durP2;ratioP2;P2;SDS_P1;SDS_P2;PMS_P1;PMS_P2;Temp;Humidity;BMP_temperature;BMP_pressure;BME280_temperature;BME280_humidity;BME280_pressure;Samples;Min_cycle;Max_cycle;Signal;HPM_P1;HPM_P2
2023/10/15 13:13:12;;;;;;;;;;;14.10;73.20;;;13.18;66.82;95403.41;6299872;22;19915;-87
2023/10/15 13:21:34;;;;;;;;;;;;;;;;;;;;;
2023/10/15 13:25:05;;;;;;;;;;;14.10;73.40;;;13.15;67.17;95397.69;6110702;23;19920;-87
2023/10/15 14:00:52;;;;;;;;;;;14.10;73.80;;;13.14;67.32;95396.88;6079481;23;19929;-87
2023/10/15 14:03:55;;;;;;;;;;;14.10;73.80;;;13.15;67.32;95398.50;6085786;23;19921;-87
2023/10/15 14:06:38;;;;;;;;;;;14.10;73.90;;;13.12;67.40;95399.09;6085204;23;19921;-86
2023/10/15 14:09:54;;;;;;;;;;;14.10;73.80;;;13.12;67.33;95403.81;6062345;23;19929;-87
2023/10/15 14:16:35;;;;;;;;;;;14.10;73.80;;;13.13;67.43;95395.25;6087091;23;19975;-86
2023/10/15 14:19:43;;;;;;;;;;;14.10;74.00;;;13.13;67.46;95400.75;5971673;24;19929;-87
2023/10/15 14:22:45;;;;;;;;;;;14.00;73.90;;;13.10;67.42;95395.06;6063269;23;19928;-87
2023/10/15 14:25:47;;;;;;;;;;;14.00;73.80;;;13.11;67.46;95402.19;6059405;23;19925;-87
2023/10/15 14:29:01;;;;;;;;;;;14.00;73.80;;;13.12;67.41;95410.09;6084099;23;19928;-86
2023/10/15 14:38:28;;;;;;;;;;;14.00;73.80;;;13.13;67.53;95417.22;6084636;23;19925;-87
2023/10/15 14:44:37;;;;;;;;;;;14.00;74.00;;;13.10;67.51;95404.13;6078988;23;19921;-87
2023/10/15 14:47:51;;;;;;;;;;;14.00;74.10;;;13.11;67.72;95413.16;6078956;23;19921;-87
2023/10/15 14:50:51;;;;;;;;;;;14.00;74.20;;;13.09;67.65;95402.50;6079440;23;19925;-87
2023/10/15 15:01:56;;;;;;;;;;;14.00;74.20;;;13.10;67.74;95412.38;6073460;23;20007;-87
2023/10/15 15:09:51;;;;;;;;;;;14.00;74.30;;;13.05;67.89;95412.47;6131156;23;19929;-87
2023/10/15 15:20:21;;;;;;;;;;;13.90;74.40;;;13.05;67.90;95404.22;5996876;23;19934;-87
2023/10/15 15:23:30;;;;;;;;;;;13.90;74.30;;;13.07;67.86;95407.47;5996976;23;19922;-87
2023/10/15 15:30:33;;;;;;;;;;;14.00;74.50;;;13.09;67.75;95426.41;6124202;23;19940;-87
2023/10/15 16:39:17;;;;;;;;;;;13.90;75.30;;;13.04;68.64;95529.78;6094257;23;19921;-86
2023/10/15 20:02:45;;;;;;;;;;;;;;;;;;;;;
2023/10/15 20:05:38;;;;;;;;;;;13.40;77.80;;;12.51;71.07;95835.72;6098735;23;20230;-86
2023/10/15 20:08:07;;;;;;;;;;;13.40;77.80;;;12.50;70.80;95833.28;6107451;23;19921;-85
2023/10/15 20:10:35;;;;;;;;;;;13.40;77.80;;;12.49;70.97;95839.88;6083610;23;19921;-85
2023/10/15 20:13:03;;;;;;;;;;;13.40;77.80;;;12.50;70.96;95845.06;6131933;23;19928;-85
2023/10/15 20:15:33;;;;;;;;;;;13.40;77.90;;;12.49;70.84;95843.44;6107922;23;19929;-85
2023/10/15 20:18:01;;;;;;;;;;;13.40;78.70;;;12.48;70.71;95841.00;6083043;23;19928;-85
2023/10/15 20:20:30;;;;;;;;;;;13.40;77.90;;;12.47;71.04;95851.13;6083637;23;19921;-86
2023/10/15 20:22:59;;;;;;;;;;;13.40;77.90;;;12.48;71.00;95851.97;6106608;23;19928;-86
2023/10/15 20:25:30;;;;;;;;;;;13.40;77.90;;;12.48;71.04;95843.75;6119039;23;19921;-86
2023/10/15 20:28:01;;;;;;;;;;;13.40;77.90;;;12.49;70.97;95853.63;6106444;23;20359;-86
2023/10/15 20:30:31;;;;;;;;;;;13.40;77.90;;;12.48;71.08;95857.47;6059618;23;19925;-86
2023/10/15 20:32:59;;;;;;;;;;;13.40;78.00;;;12.49;70.87;95859.91;6107588;23;19921;-86
2023/10/15 20:35:28;;;;;;;;;;;13.40;78.00;;;12.46;71.05;95849.50;6108045;23;20345;-86
2023/10/15 20:37:57;;;;;;;;;;;13.30;77.90;;;12.46;70.91;95857.75;6107164;23;20344;-85
2023/10/15 20:40:27;;;;;;;;;;;13.30;77.90;;;12.44;71.00;95851.75;6083657;23;19921;-85
2023/10/15 20:42:55;;;;;;;;;;;13.30;77.90;;;12.45;70.94;95853.38;6107887;23;19925;-85
2023/10/15 20:45:25;;;;;;;;;;;13.30;77.90;;;12.46;71.00;95856.94;6107646;23;19925;-85
2023/10/15 20:47:53;;;;;;;;;;;13.30;77.90;;;12.41;70.66;95853.13;6107363;23;19921;-85
2023/10/15 20:50:21;;;;;;;;;;;13.30;77.90;;;12.44;70.95;95857.25;6083347;23;19921;-85
2023/10/15 20:52:50;;;;;;;;;;;13.30;77.90;;;12.44;70.94;95851.75;6107395;23;19921;-85
2023/10/15 20:55:19;;;;;;;;;;;13.30;77.90;;;12.43;70.90;95858.34;6107279;23;19925;-85
2023/10/15 20:57:50;;;;;;;;;;;13.30;77.90;;;12.42;70.89;95856.72;6083087;23;20341;-85
2023/10/15 21:00:20;;;;;;;;;;;13.30;77.90;;;12.44;70.87;95859.97;6083753;23;19925;-86
2023/10/15 21:02:49;;;;;;;;;;;13.30;77.80;;;12.43;70.81;95853.66;6083348;23;19927;-85
2023/10/15 21:05:17;;;;;;;;;;;13.30;77.80;;;12.44;70.82;95857.25;6083796;23;20018;-86
2023/10/15 21:07:46;;;;;;;;;;;13.30;77.60;;;12.42;70.65;95851.22;6106429;23;20356;-86
2023/10/15 21:10:14;;;;;;;;;;;13.30;77.70;;;12.41;70.64;95849.56;6106440;23;19933;-86
2023/10/15 21:12:43;;;;;;;;;;;13.30;77.70;;;12.39;70.47;95843.56;6083289;23;19921;-86
2023/10/15 21:15:17;;;;;;;;;;;13.30;77.50;;;12.39;70.55;95843.56;6107702;23;19921;-86
2023/10/15 21:17:48;;;;;;;;;;;13.30;77.40;;;12.39;70.63;95846.31;6082987;23;20260;-86
2023/10/15 21:20:25;;;;;;;;;;;13.30;77.50;;;12.37;70.53;95845.78;6059914;23;20345;-86
2023/10/15 21:23:07;;;;;;;;;;;;;;;;;;;;;
2023/10/15 21:25:54;;;;;;;;;;;13.20;77.30;;;12.34;70.48;95838.09;6106899;23;19925;-86
2023/10/15 21:33:03;;;;;;;;;;;;;;;;;;;;;
